Time;durP1;ratioP1;P1;durP2;ratioP2;P2;SDS_P1;SDS_P2;PMS_P1;PMS_P2;Temp;Humidity;BMP_temperature;BMP_pressure;BME280_temperature;BME280_humidity;BME280_pressure;Samples;Min_cycle;Max_cycle;Signal;HPM_P1;HPM_P2
2022/09/07 00:03:01;;;;;;;6.13;5.00;;;;;;;;;;10150094;28;20046;-67
2022/09/07 00:08:05;;;;;;;9.80;5.20;;;;;;;;;;10152176;28;20039;-67
2022/09/07 00:13:04;;;;;;;7.57;5.90;;;;;;;;;;10144734;28;20041;-68
2022/09/07 00:18:03;;;;;;;5.80;5.30;;;;;;;;;;10145935;28;20469;-68
2022/09/07 00:23:04;;;;;;;5.55;5.07;;;;;;;;;;10143340;28;20064;-67
2022/09/07 00:28:01;;;;;;;9.00;5.90;;;;;;;;;;10139911;28;20038;-68
2022/09/07 00:33:02;;;;;;;7.00;5.55;;;;;;;;;;10143921;28;20041;-67
2022/09/07 00:37:59;;;;;;;6.28;5.75;;;;;;;;;;10146056;28;20096;-67
2022/09/07 00:42:58;;;;;;;5.40;4.97;;;;;;;;;;10147734;28;20042;-68
2022/09/07 00:48:04;;;;;;;5.50;5.00;;;;;;;;;;10149748;28;20480;-67
2022/09/07 00:53:03;;;;;;;5.93;5.43;;;;;;;;;;10137719;28;20043;-67
2022/09/07 00:58:05;;;;;;;5.70;5.20;;;;;;;;;;10147875;28;20045;-68
2022/09/07 01:03:03;;;;;;;6.20;5.60;;;;;;;;;;10138467;28;20192;-67
2022/09/07 01:08:06;;;;;;;9.13;5.75;;;;;;;;;;10143829;28;20047;-67
2022/09/07 01:13:13;;;;;;;6.40;5.72;;;;;;;;;;10146949;28;20132;-68
2022/09/07 01:18:24;;;;;;;7.80;5.53;;;;;;;;;;10149595;28;20073;-68
2022/09/07 01:23:21;;;;;;;7.68;6.10;;;;;;;;;;10148252;28;20473;-67
2022/09/07 01:28:22;;;;;;;8.10;5.65;;;;;;;;;;10145621;28;20053;-68
2022/09/07 01:33:34;;;;;;;6.20;5.60;;;;;;;;;;10144130;28;20061;-67
2022/09/07 01:38:42;;;;;;;6.10;5.60;;;;;;;;;;10147566;28;20042;-67
2022/09/07 01:44:00;;;;;;;6.57;5.72;;;;;;;;;;10149448;28;20042;-69
2022/09/07 01:49:13;;;;;;;6.28;5.78;;;;;;;;;;10150516;28;20080;-68
2022/09/07 01:54:18;;;;;;;6.45;5.85;;;;;;;;;;10142743;28;20134;-67
2022/09/07 01:59:22;;;;;;;5.68;5.28;;;;;;;;;;10141941;28;20062;-68
2022/09/07 02:04:33;;;;;;;6.38;5.55;;;;;;;;;;10136631;28;20148;-68
2022/09/07 02:09:34;;;;;;;7.60;6.45;;;;;;;;;;10146144;28;20046;-67
2022/09/07 02:14:35;;;;;;;6.60;5.90;;;;;;;;;;10143456;28;20051;-67
2022/09/07 02:19:58;;;;;;;6.20;5.60;;;;;;;;;;10140145;28;20101;-68
2022/09/07 02:24:59;;;;;;;6.20;5.53;;;;;;;;;;10135692;28;20046;-67
2022/09/07 02:29:58;;;;;;;6.50;5.90;;;;;;;;;;10137333;28;20093;-68
2022/09/07 02:35:05;;;;;;;6.38;5.78;;;;;;;;;;10147725;28;20042;-68
2022/09/07 02:40:02;;;;;;;6.35;5.78;;;;;;;;;;10137588;28;20065;-68
2022/09/07 02:44:59;;;;;;;7.53;5.50;;;;;;;;;;10134134;28;20417;-68
2022/09/07 02:50:14;;;;;;;6.95;5.63;;;;;;;;;;10141345;28;20050;-67
2022/09/07 02:55:16;;;;;;;7.18;5.55;;;;;;;;;;10121333;28;20054;-68
2022/09/07 03:00:24;;;;;;;6.43;5.93;;;;;;;;;;10148845;28;20047;-67
2022/09/07 03:05:29;;;;;;;6.93;6.20;;;;;;;;;;10138529;28;20057;-67
2022/09/07 03:10:32;;;;;;;6.72;6.03;;;;;;;;;;10152257;28;20065;-67
2022/09/07 03:15:31;;;;;;;7.43;6.05;;;;;;;;;;10146573;28;20046;-67
2022/09/07 03:20:30;;;;;;;6.55;6.00;;;;;;;;;;10148706;28;20549;-68
2022/09/07 03:25:27;;;;;;;6.95;6.30;;;;;;;;;;10144696;28;20062;-68
2022/09/07 03:30:23;;;;;;;7.10;6.43;;;;;;;;;;10154540;28;20075;-67
2022/09/07 03:35:27;;;;;;;8.82;6.68;;;;;;;;;;10149504;28;20580;-68
2022/09/07 03:40:30;;;;;;;6.63;6.03;;;;;;;;;;10149373;28;20078;-67
2022/09/07 03:45:39;;;;;;;6.72;6.13;;;;;;;;;;10145278;28;20128;-67
2022/09/07 03:50:38;;;;;;;8.02;6.38;;;;;;;;;;10152340;28;20042;-67
2022/09/07 03:55:35;;;;;;;6.75;6.15;;;;;;;;;;10151486;28;20057;-67
2022/09/07 04:00:44;;;;;;;10.20;7.70;;;;;;;;;;10141903;28;20058;-67
2022/09/07 04:05:43;;;;;;;7.25;6.60;;;;;;;;;;10149099;28;20122;-66
2022/09/07 04:10:40;;;;;;;7.93;6.88;;;;;;;;;;10146506;28;20038;-67
2022/09/07 04:15:39;;;;;;;7.85;7.15;;;;;;;;;;10135239;28;20053;-68
2022/09/07 04:20:39;;;;;;;7.65;6.85;;;;;;;;;;10131071;28;20054;-67
2022/09/07 04:25:48;;;;;;;8.40;7.70;;;;;;;;;;10137941;28;20567;-67
2022/09/07 04:30:47;;;;;;;9.25;7.95;;;;;;;;;;10142947;28;20069;-66
2022/09/07 04:35:48;;;;;;;10.32;9.50;;;;;;;;;;10135334;28;20080;-68
2022/09/07 04:40:52;;;;;;;10.23;9.33;;;;;;;;;;10144336;28;20097;-68
2022/09/07 04:45:50;;;;;;;9.95;9.05;;;;;;;;;;10131894;28;20130;-68
2022/09/07 04:50:51;;;;;;;10.18;9.07;;;;;;;;;;10132012;28;20053;-68
2022/09/07 04:55:52;;;;;;;10.00;9.07;;;;;;;;;;10136413;28;20097;-68
2022/09/07 05:00:59;;;;;;;9.82;9.00;;;;;;;;;;10133461;28;20046;-69
2022/09/07 05:06:06;;;;;;;10.05;9.15;;;;;;;;;;10133424;28;20042;-68
2022/09/07 05:11:03;;;;;;;9.32;8.43;;;;;;;;;;10138105;28;20141;-68
2022/09/07 05:16:09;;;;;;;9.38;8.48;;;;;;;;;;10142081;28;20042;-68
2022/09/07 05:21:29;;;;;;;9.60;8.63;;;;;;;;;;10142990;28;20086;-68
2022/09/07 05:26:33;;;;;;;8.40;7.70;;;;;;;;;;10139925;28;20054;-71
2022/09/07 05:31:32;;;;;;;8.38;7.47;;;;;;;;;;10128372;28;20169;-67
2022/09/07 05:36:36;;;;;;;8.90;8.05;;;;;;;;;;10133535;28;20523;-67
2022/09/07 05:41:37;;;;;;;8.77;7.97;;;;;;;;;;10123126;28;20092;-67
2022/09/07 05:46:36;;;;;;;11.75;7.97;;;;;;;;;;10125408;28;20130;-67
2022/09/07 05:51:36;;;;;;;10.15;7.85;;;;;;;;;;10138146;28;20043;-68
2022/09/07 05:56:46;;;;;;;8.63;7.82;;;;;;;;;;10135873;28;20046;-69
2022/09/07 06:01:47;;;;;;;8.15;7.43;;;;;;;;;;10133218;28;20046;-69
2022/09/07 06:06:47;;;;;;;8.00;7.25;;;;;;;;;;10141965;28;20057;-69
2022/09/07 06:12:08;;;;;;;10.43;7.93;;;;;;;;;;10145261;28;20704;-69
2022/09/07 06:17:05;;;;;;;11.13;7.60;;;;;;;;;;10141111;28;20137;-69
2022/09/07 06:22:13;;;;;;;12.00;8.93;;;;;;;;;;10143467;28;20125;-69
2022/09/07 06:27:28;;;;;;;12.25;7.45;;;;;;;;;;10137286;28;20487;-69
2022/09/07 06:32:35;;;;;;;8.52;6.95;;;;;;;;;;10148049;28;20489;-69
2022/09/07 06:37:42;;;;;;;8.80;7.90;;;;;;;;;;10143096;28;20401;-68
2022/09/07 06:42:41;;;;;;;10.27;8.13;;;;;;;;;;10145751;28;20054;-69
2022/09/07 06:47:40;;;;;;;8.80;7.95;;;;;;;;;;10132250;28;20069;-68
2022/09/07 06:52:43;;;;;;;8.77;7.85;;;;;;;;;;10136612;28;20057;-69
2022/09/07 06:58:32;;;;;;;10.82;8.98;;;;;;;;;;10132169;28;20057;-68
2022/09/07 07:03:41;;;;;;;11.20;9.85;;;;;;;;;;10125909;28;20066;-69
2022/09/07 07:08:42;;;;;;;15.00;13.80;;;;;;;;;;10127660;28;20051;-69
2022/09/07 07:13:51;;;;;;;21.67;20.17;;;;;;;;;;10138220;28;20058;-69
2022/09/07 07:18:56;;;;;;;28.55;26.63;;;;;;;;;;10135834;28;20150;-69
2022/09/07 07:23:58;;;;;;;;;;;;;;;;;;10138624;28;20074;-69
2022/09/07 07:29:02;;;;;;;46.85;44.03;;;;;;;;;;10138391;28;20025;-69
2022/09/07 07:34:06;;;;;;;64.70;60.65;;;;;;;;;;10138564;28;20062;-69
2022/09/07 07:39:08;;;;;;;53.22;49.72;;;;;;;;;;10145868;28;20397;-69
2022/09/07 07:44:34;;;;;;;80.80;76.00;;;;;;;;;;10137960;28;20046;-69
2022/09/07 07:49:32;;;;;;;82.22;77.20;;;;;;;;;;10142114;28;20038;-69
2022/09/07 07:54:34;;;;;;;49.65;46.55;;;;;;;;;;10134914;28;20109;-69
2022/09/07 07:59:36;;;;;;;103.97;98.13;;;;;;;;;;10146604;28;20169;-69
2022/09/07 08:04:38;;;;;;;104.32;98.57;;;;;;;;;;10147638;28;20049;-68
2022/09/07 08:09:42;;;;;;;107.25;101.05;;;;;;;;;;10143953;28;20050;-68
2022/09/07 08:14:43;;;;;;;103.93;98.00;;;;;;;;;;10138954;28;20727;-69
2022/09/07 08:19:42;;;;;;;93.43;88.05;;;;;;;;;;10150061;28;20065;-69
2022/09/07 08:25:06;;;;;;;92.65;87.45;;;;;;;;;;10148273;28;20129;-69
2022/09/07 08:30:09;;;;;;;96.88;91.57;;;;;;;;;;10114610;28;20665;-68
2022/09/07 08:35:19;;;;;;;100.75;95.35;;;;;;;;;;10127234;28;20050;-69
2022/09/07 08:40:21;;;;;;;93.88;88.38;;;;;;;;;;10116972;28;20104;-69
2022/09/07 08:45:57;;;;;;;104.35;98.13;;;;;;;;;;10138300;28;20141;-69
2022/09/07 08:51:20;;;;;;;99.57;93.90;;;;;;;;;;10126387;28;20077;-69
2022/09/07 08:56:30;;;;;;;100.22;94.60;;;;;;;;;;10113803;28;20050;-69
2022/09/07 09:01:39;;;;;;;110.47;104.15;;;;;;;;;;10140850;28;20050;-69
2022/09/07 09:06:48;;;;;;;105.97;100.13;;;;;;;;;;10151800;28;20050;-69
2022/09/07 09:11:56;;;;;;;91.18;86.03;;;;;;;;;;10144416;28;20046;-69
2022/09/07 09:17:19;;;;;;;93.53;87.90;;;;;;;;;;10145455;28;20137;-69
2022/09/07 09:22:25;;;;;;;101.57;95.80;;;;;;;;;;10129399;28;20114;-69
2022/09/07 09:27:32;;;;;;;117.22;111.03;;;;;;;;;;10144156;28;20523;-69
2022/09/07 09:32:40;;;;;;;110.05;104.00;;;;;;;;;;10139972;28;20097;-69
2022/09/07 09:37:43;;;;;;;86.00;81.30;;;;;;;;;;10144702;28;20081;-69
2022/09/07 09:42:39;;;;;;;63.65;59.85;;;;;;;;;;10140953;28;20113;-69
2022/09/07 09:47:52;;;;;;;62.45;58.75;;;;;;;;;;10125044;28;20048;-69
2022/09/07 09:53:06;;;;;;;56.38;52.88;;;;;;;;;;10132136;28;20500;-69
2022/09/07 09:58:08;;;;;;;43.25;40.65;;;;;;;;;;10134623;28;20053;-69
2022/09/07 10:03:29;;;;;;;37.03;34.78;;;;;;;;;;10134102;28;20428;-68
2022/09/07 10:09:18;;;;;;;37.40;35.17;;;;;;;;;;10120718;28;20058;-69
2022/09/07 10:14:27;;;;;;;39.95;37.25;;;;;;;;;;10144791;28;20108;-69
2022/09/07 10:19:38;;;;;;;29.88;27.85;;;;;;;;;;10118990;28;20167;-69
2022/09/07 10:24:52;;;;;;;34.40;32.30;;;;;;;;;;10130198;28;20046;-69
2022/09/07 10:30:09;;;;;;;36.13;33.78;;;;;;;;;;10133553;28;20097;-69
2022/09/07 10:35:25;;;;;;;25.95;24.23;;;;;;;;;;10117655;28;20050;-68
2022/09/07 10:40:33;;;;;;;17.95;16.45;;;;;;;;;;10129050;28;20046;-69
2022/09/07 10:45:41;;;;;;;14.30;12.98;;;;;;;;;;10124176;28;20129;-69
2022/09/07 10:50:48;;;;;;;16.75;15.55;;;;;;;;;;10132979;28;20043;-69
2022/09/07 10:55:57;;;;;;;16.13;14.60;;;;;;;;;;10137418;28;20129;-69
2022/09/07 11:01:08;;;;;;;16.02;14.93;;;;;;;;;;10121825;28;20099;-69
2022/09/07 11:06:31;;;;;;;16.38;15.07;;;;;;;;;;10136004;28;20070;-69
2022/09/07 11:11:40;;;;;;;16.08;14.40;;;;;;;;;;10127113;28;20054;-69
2022/09/07 11:17:21;;;;;;;16.50;15.10;;;;;;;;;;10132596;28;20080;-69
2022/09/07 11:22:24;;;;;;;15.40;14.15;;;;;;;;;;10125641;28;20109;-69
2022/09/07 11:27:30;;;;;;;15.90;14.45;;;;;;;;;;10139741;28;20078;-69
2022/09/07 11:32:44;;;;;;;16.35;14.95;;;;;;;;;;10144726;28;20040;-69
2022/09/07 11:37:58;;;;;;;14.88;13.48;;;;;;;;;;10140528;28;20500;-69
2022/09/07 11:42:59;;;;;;;14.48;13.38;;;;;;;;;;10130625;28;20050;-70
2022/09/07 11:48:12;;;;;;;13.65;12.63;;;;;;;;;;10139507;28;20042;-69
2022/09/07 11:53:24;;;;;;;14.00;12.95;;;;;;;;;;10139908;28;20046;-69
2022/09/07 11:58:45;;;;;;;12.45;11.45;;;;;;;;;;10137630;28;20515;-69
2022/09/07 12:04:04;;;;;;;15.23;13.15;;;;;;;;;;10138453;28;20042;-69
2022/09/07 12:09:49;;;;;;;13.73;12.73;;;;;;;;;;10146192;28;20042;-70
2022/09/07 12:14:57;;;;;;;12.43;11.18;;;;;;;;;;10105360;28;20519;-70
2022/09/07 12:20:14;;;;;;;11.48;10.57;;;;;;;;;;10148605;28;20512;-69
2022/09/07 12:25:16;;;;;;;13.25;11.88;;;;;;;;;;10119241;28;20501;-69
2022/09/07 12:30:28;;;;;;;11.88;10.88;;;;;;;;;;10134600;28;20050;-69
2022/09/07 12:35:27;;;;;;;12.68;11.65;;;;;;;;;;10126138;28;20412;-70
2022/09/07 12:40:26;;;;;;;12.48;11.13;;;;;;;;;;10145231;28;20061;-70
2022/09/07 12:45:32;;;;;;;11.50;10.65;;;;;;;;;;10123720;28;20117;-70
2022/09/07 12:50:53;;;;;;;11.38;10.57;;;;;;;;;;10134907;28;20050;-70
2022/09/07 12:56:00;;;;;;;11.35;10.45;;;;;;;;;;10115927;28;20097;-70
2022/09/07 13:01:17;;;;;;;11.88;10.90;;;;;;;;;;10144366;28;20417;-70
2022/09/07 13:06:14;;;;;;;12.57;11.32;;;;;;;;;;10139742;28;20106;-70
2022/09/07 13:11:21;;;;;;;11.43;10.52;;;;;;;;;;10124754;28;20050;-70
2022/09/07 13:16:43;;;;;;;12.30;11.30;;;;;;;;;;10131611;28;20402;-70
2022/09/07 13:22:30;;;;;;;11.50;10.60;;;;;;;;;;10133199;28;20137;-70
2022/09/07 13:27:41;;;;;;;11.40;10.50;;;;;;;;;;10131091;28;20085;-70
2022/09/07 13:32:39;;;;;;;11.82;10.90;;;;;;;;;;10140464;28;20049;-70
2022/09/07 13:38:13;;;;;;;11.52;10.55;;;;;;;;;;10146294;28;20049;-70
2022/09/07 13:43:19;;;;;;;11.85;10.80;;;;;;;;;;10134333;28;20093;-70
2022/09/07 13:48:32;;;;;;;12.38;11.38;;;;;;;;;;10121231;28;20069;-69
2022/09/07 13:53:52;;;;;;;12.63;11.50;;;;;;;;;;10130030;28;20455;-70
2022/09/07 13:59:24;;;;;;;12.10;11.00;;;;;;;;;;10139841;28;20061;-70
2022/09/07 14:04:57;;;;;;;12.38;11.32;;;;;;;;;;10129990;28;20429;-70
2022/09/07 14:10:19;;;;;;;12.82;11.60;;;;;;;;;;10137411;28;20040;-69
2022/09/07 14:15:23;;;;;;;12.20;11.00;;;;;;;;;;10141910;28;20078;-69
2022/09/07 14:20:23;;;;;;;12.35;11.45;;;;;;;;;;10142298;28;20043;-70
2022/09/07 14:25:21;;;;;;;13.40;12.32;;;;;;;;;;10127609;28;21780;-69
2022/09/07 14:30:26;;;;;;;13.00;11.82;;;;;;;;;;10144641;22;20050;-70
2022/09/07 14:35:37;;;;;;;13.60;12.40;;;;;;;;;;10127634;28;20042;-70
2022/09/07 14:40:39;;;;;;;11.90;10.98;;;;;;;;;;10124258;28;20056;-69
2022/09/07 14:45:46;;;;;;;12.10;11.20;;;;;;;;;;10128701;28;20527;-70
2022/09/07 14:50:46;;;;;;;12.30;11.20;;;;;;;;;;10131586;28;20071;-69
2022/09/07 14:56:08;;;;;;;12.45;11.38;;;;;;;;;;10113535;28;20050;-69
2022/09/07 15:01:15;;;;;;;11.80;10.85;;;;;;;;;;10122997;28;20074;-70
2022/09/07 15:06:45;;;;;;;11.45;10.55;;;;;;;;;;10131196;28;20123;-69
2022/09/07 15:12:08;;;;;;;13.48;12.35;;;;;;;;;;10128979;28;20129;-70
2022/09/07 15:17:04;;;;;;;13.07;11.98;;;;;;;;;;10129412;28;20043;-69
2022/09/07 15:22:32;;;;;;;11.98;11.07;;;;;;;;;;10138203;28;20133;-69
2022/09/07 15:27:34;;;;;;;12.00;11.10;;;;;;;;;;10150973;28;21138;-69
2022/09/07 15:32:38;;;;;;;11.68;10.77;;;;;;;;;;10139439;28;20042;-70
2022/09/07 15:37:38;;;;;;;13.07;11.90;;;;;;;;;;10151469;28;20046;-69
2022/09/07 15:43:12;;;;;;;12.93;11.55;;;;;;;;;;10150177;28;20077;-69
2022/09/07 15:48:24;;;;;;;12.32;11.43;;;;;;;;;;10132839;28;20046;-69
2022/09/07 15:53:23;;;;;;;11.95;10.95;;;;;;;;;;10139072;28;20049;-69
2022/09/07 15:58:45;;;;;;;21.02;18.92;;;;;;;;;;10134152;28;20063;-69
2022/09/07 16:03:41;;;;;;;12.73;11.50;;;;;;;;;;10132261;28;20062;-69
2022/09/07 16:08:39;;;;;;;13.25;12.15;;;;;;;;;;10141071;28;20062;-71
2022/09/07 16:13:36;;;;;;;12.43;11.32;;;;;;;;;;10127154;28;20518;-69
2022/09/07 16:18:45;;;;;;;11.48;10.65;;;;;;;;;;10133318;28;20054;-69
2022/09/07 16:23:51;;;;;;;11.48;10.55;;;;;;;;;;10135495;28;20049;-70
2022/09/07 16:28:50;;;;;;;12.02;11.02;;;;;;;;;;10147528;28;20054;-70
2022/09/07 16:34:05;;;;;;;12.35;11.48;;;;;;;;;;10147208;28;20094;-70
2022/09/07 16:39:07;;;;;;;11.80;10.90;;;;;;;;;;10133806;28;20062;-69
2022/09/07 16:44:08;;;;;;;10.50;9.70;;;;;;;;;;10133806;28;20073;-69
2022/09/07 16:49:09;;;;;;;11.90;11.00;;;;;;;;;;10134268;28;20061;-69
2022/09/07 16:54:16;;;;;;;11.27;10.43;;;;;;;;;;10129162;28;20128;-69
2022/09/07 16:59:25;;;;;;;12.05;11.05;;;;;;;;;;10130988;28;21030;-68
2022/09/07 17:04:28;;;;;;;12.75;11.68;;;;;;;;;;10116441;28;20060;-68
2022/09/07 17:09:29;;;;;;;13.02;11.73;;;;;;;;;;10125672;28;21504;-68
2022/09/07 17:14:30;;;;;;;12.80;11.77;;;;;;;;;;10131317;28;20047;-68
2022/09/07 17:19:45;;;;;;;14.70;13.25;;;;;;;;;;10142440;28;20129;-69
2022/09/07 17:24:50;;;;;;;14.70;13.45;;;;;;;;;;10129626;28;20054;-69
2022/09/07 17:29:49;;;;;;;14.65;13.55;;;;;;;;;;10137858;28;20420;-69
2022/09/07 17:34:54;;;;;;;14.43;13.43;;;;;;;;;;10130095;28;20038;-69
2022/09/07 17:39:55;;;;;;;15.98;14.65;;;;;;;;;;10136278;28;20145;-69
2022/09/07 17:45:25;;;;;;;17.25;16.00;;;;;;;;;;10102089;28;20141;-69
2022/09/07 17:50:31;;;;;;;19.25;16.48;;;;;;;;;;10146334;28;20055;-69
2022/09/07 17:55:37;;;;;;;17.67;16.25;;;;;;;;;;10136693;28;20053;-69
2022/09/07 18:00:44;;;;;;;19.98;18.42;;;;;;;;;;10133062;28;20050;-69
2022/09/07 18:05:45;;;;;;;20.58;18.98;;;;;;;;;;10132568;28;20560;-69
2022/09/07 18:10:53;;;;;;;21.98;20.20;;;;;;;;;;10139783;28;20141;-69
2022/09/07 18:16:19;;;;;;;25.23;23.42;;;;;;;;;;10141319;28;20527;-69
2022/09/07 18:21:39;;;;;;;24.05;22.25;;;;;;;;;;10131979;28;20431;-69
2022/09/07 18:26:52;;;;;;;25.60;23.60;;;;;;;;;;10134259;28;20054;-69
2022/09/07 18:31:52;;;;;;;28.40;26.40;;;;;;;;;;10133311;28;20053;-69
2022/09/07 18:36:56;;;;;;;36.47;34.17;;;;;;;;;;10134273;28;20049;-69
2022/09/07 18:41:57;;;;;;;49.78;46.58;;;;;;;;;;10131353;28;20134;-69
2022/09/07 18:46:59;;;;;;;59.42;55.92;;;;;;;;;;10119264;28;20057;-69
2022/09/07 18:52:07;;;;;;;34.13;31.95;;;;;;;;;;10136120;28;20184;-69
2022/09/07 18:57:33;;;;;;;30.73;28.77;;;;;;;;;;10128241;28;20043;-69
2022/09/07 19:02:35;;;;;;;30.27;28.20;;;;;;;;;;10121181;28;20535;-69
2022/09/07 19:07:35;;;;;;;34.30;32.00;;;;;;;;;;10124667;28;20138;-69
2022/09/07 19:12:50;;;;;;;35.00;32.70;;;;;;;;;;10132262;28;20062;-69
2022/09/07 19:17:46;;;;;;;37.28;34.88;;;;;;;;;;10126876;28;20047;-69
2022/09/07 19:22:55;;;;;;;40.40;37.92;;;;;;;;;;10134450;28;20154;-69
2022/09/07 19:28:17;;;;;;;41.33;38.65;;;;;;;;;;10130297;28;20428;-69
2022/09/07 19:33:15;;;;;;;49.63;46.42;;;;;;;;;;10125682;28;20054;-69
2022/09/07 19:38:16;;;;;;;52.97;49.80;;;;;;;;;;10132907;28;20049;-69
2022/09/07 19:43:15;;;;;;;59.97;56.15;;;;;;;;;;10134224;28;20472;-69
2022/09/07 19:48:16;;;;;;;57.65;54.35;;;;;;;;;;10132093;28;20497;-69
2022/09/07 19:53:18;;;;;;;62.73;59.03;;;;;;;;;;10142126;28;20112;-69
2022/09/07 19:58:33;;;;;;;63.03;59.45;;;;;;;;;;10145713;28;20076;-70
2022/09/07 20:03:40;;;;;;;70.00;65.65;;;;;;;;;;10134974;28;20073;-69
2022/09/07 20:08:53;;;;;;;72.60;68.25;;;;;;;;;;10136716;28;20101;-69
2022/09/07 20:13:51;;;;;;;73.82;69.72;;;;;;;;;;10132648;28;20042;-68
2022/09/07 20:18:47;;;;;;;75.63;71.43;;;;;;;;;;10146974;28;20049;-68
2022/09/07 20:23:43;;;;;;;74.63;70.50;;;;;;;;;;10138307;28;20047;-67
2022/09/07 20:28:40;;;;;;;71.65;67.55;;;;;;;;;;10149725;28;20424;-67
2022/09/07 20:33:36;;;;;;;85.80;81.00;;;;;;;;;;10145414;28;20046;-67
2022/09/07 20:38:37;;;;;;;84.65;79.68;;;;;;;;;;10139956;28;20043;-66
2022/09/07 20:43:35;;;;;;;83.20;78.70;;;;;;;;;;10142711;28;20069;-66
2022/09/07 20:48:32;;;;;;;90.07;85.15;;;;;;;;;;10141935;28;20135;-66
2022/09/07 20:53:29;;;;;;;108.25;102.38;;;;;;;;;;10136656;28;20081;-67
2022/09/07 20:58:25;;;;;;;104.78;99.00;;;;;;;;;;10141979;28;20071;-67
2022/09/07 21:03:21;;;;;;;109.18;103.45;;;;;;;;;;10136573;28;20524;-67
2022/09/07 21:08:18;;;;;;;113.70;107.43;;;;;;;;;;10133499;28;20042;-67
2022/09/07 21:13:14;;;;;;;113.85;107.70;;;;;;;;;;10132094;28;20055;-66
2022/09/07 21:18:15;;;;;;;121.55;114.95;;;;;;;;;;10137804;28;20058;-67
2022/09/07 21:23:11;;;;;;;121.28;114.75;;;;;;;;;;10143926;28;20575;-67
2022/09/07 21:28:07;;;;;;;127.05;120.43;;;;;;;;;;10144392;28;20043;-67
2022/09/07 21:33:03;;;;;;;126.38;119.63;;;;;;;;;;10146179;28;20046;-67
2022/09/07 21:38:00;;;;;;;132.18;125.00;;;;;;;;;;10138982;28;20057;-67
2022/09/07 21:42:56;;;;;;;130.68;123.80;;;;;;;;;;10146683;28;20053;-66
2022/09/07 21:47:52;;;;;;;136.27;129.10;;;;;;;;;;10142055;28;20054;-66
2022/09/07 21:52:49;;;;;;;129.32;122.57;;;;;;;;;;10139070;28;20050;-67
2022/09/07 21:57:45;;;;;;;126.70;120.07;;;;;;;;;;10139559;28;20500;-67
2022/09/07 22:02:41;;;;;;;123.13;116.47;;;;;;;;;;10144937;28;21020;-67
2022/09/07 22:07:37;;;;;;;128.93;122.10;;;;;;;;;;10144639;28;20057;-67
2022/09/07 22:12:34;;;;;;;126.07;119.40;;;;;;;;;;10140002;28;20046;-67
2022/09/07 22:17:30;;;;;;;122.40;116.03;;;;;;;;;;10146828;28;20137;-67
2022/09/07 22:22:26;;;;;;;132.38;125.45;;;;;;;;;;10145165;28;20078;-67
2022/09/07 22:27:23;;;;;;;132.00;125.00;;;;;;;;;;10145208;28;20058;-67
2022/09/07 22:32:19;;;;;;;128.88;121.65;;;;;;;;;;10142160;28;20046;-67
2022/09/07 22:37:15;;;;;;;134.15;127.13;;;;;;;;;;10147011;28;20050;-67
2022/09/07 22:42:11;;;;;;;130.88;123.72;;;;;;;;;;10145116;28;20057;-68
2022/09/07 22:47:08;;;;;;;128.45;121.53;;;;;;;;;;10148550;28;20053;-67
2022/09/07 22:52:04;;;;;;;130.75;123.80;;;;;;;;;;10142889;28;20046;-67
2022/09/07 22:57:01;;;;;;;133.27;126.18;;;;;;;;;;10137963;28;20043;-67
2022/09/07 23:01:57;;;;;;;127.78;120.90;;;;;;;;;;10146008;28;20046;-67
2022/09/07 23:06:53;;;;;;;132.95;125.78;;;;;;;;;;10141633;28;20046;-66
2022/09/07 23:11:50;;;;;;;134.32;127.03;;;;;;;;;;10146301;28;20054;-66
2022/09/07 23:16:47;;;;;;;135.73;128.45;;;;;;;;;;10142055;28;20057;-66
2022/09/07 23:21:43;;;;;;;126.88;119.75;;;;;;;;;;10141880;28;20053;-66
2022/09/07 23:26:39;;;;;;;136.25;128.52;;;;;;;;;;10148227;28;20050;-66
2022/09/07 23:31:36;;;;;;;129.52;122.47;;;;;;;;;;10151507;28;20448;-66
2022/09/07 23:36:32;;;;;;;126.20;119.30;;;;;;;;;;10152193;28;20133;-66
2022/09/07 23:41:28;;;;;;;128.70;121.70;;;;;;;;;;10153828;28;20051;-67
2022/09/07 23:46:25;;;;;;;132.60;125.35;;;;;;;;;;10153555;28;20058;-65
2022/09/07 23:51:21;;;;;;;129.85;122.55;;;;;;;;;;10152956;28;20057;-67
2022/09/07 23:56:20;;;;;;;131.48;124.22;;;;;;;;;;10153067;28;20046;-66
